createdAt,value
2023-02-11T00:01:00.991Z,2.50
2023-02-11T00:03:27.711Z,3.03
2023-02-11T00:06:02.622Z,2.20
2023-02-11T00:08:29.421Z,2.47
2023-02-11T00:10:57.757Z,1.90
2023-02-11T00:13:25.786Z,1.55
2023-02-11T00:15:53.238Z,1.73
2023-02-11T00:18:20.589Z,1.95
2023-02-11T00:20:47.375Z,1.70
2023-02-11T00:23:15.004Z,2.33
2023-02-11T00:25:43.451Z,1.58
2023-02-11T00:28:10.824Z,2.25
2023-02-11T00:30:38.158Z,2.05
2023-02-11T00:33:04.941Z,2.40
2023-02-11T00:35:31.720Z,2.33
2023-02-11T00:37:58.712Z,2.90
2023-02-11T00:40:25.577Z,2.63
2023-02-11T00:42:52.354Z,2.83
2023-02-11T00:45:21.376Z,2.97
2023-02-11T00:47:48.789Z,2.88
2023-02-11T00:50:15.579Z,2.92
2023-02-11T00:52:42.467Z,3.28
2023-02-11T00:55:09.371Z,3.20
2023-02-11T00:57:36.401Z,3.03
2023-02-11T01:00:05.410Z,2.78
2023-02-11T01:02:32.402Z,3.08
2023-02-11T01:05:00.179Z,2.95
2023-02-11T01:07:28.411Z,2.90
2023-02-11T01:09:55.169Z,2.92
2023-02-11T01:12:24.940Z,3.25
2023-02-11T01:14:51.919Z,2.95
2023-02-11T01:17:18.753Z,3.60
2023-02-11T01:19:45.495Z,3.63
2023-02-11T01:22:13.305Z,2.70
2023-02-11T01:24:40.065Z,3.10
2023-02-11T01:27:06.798Z,2.83
2023-02-11T01:29:33.629Z,3.70
2023-02-11T01:32:01.405Z,3.60
2023-02-11T01:34:28.282Z,3.63
2023-02-11T01:37:01.066Z,3.17
2023-02-11T01:39:27.984Z,4.05
2023-02-11T01:41:54.773Z,3.10
2023-02-11T01:44:22.702Z,5.35
2023-02-11T01:46:49.634Z,4.68
2023-02-11T01:49:25.480Z,4.53
2023-02-11T01:52:06.026Z,4.97
2023-02-11T01:54:56.461Z,4.53
2023-02-11T01:57:28.517Z,4.03
2023-02-11T02:00:04.614Z,3.80
2023-02-11T02:02:50.168Z,3.67
2023-02-11T02:05:43.354Z,3.90
2023-02-11T02:08:21.751Z,3.25
2023-02-11T02:10:54.794Z,3.17
2023-02-11T02:13:22.014Z,2.97
2023-02-11T02:16:03.497Z,3.45
2023-02-11T02:18:54.605Z,3.03
2023-02-11T02:21:45.900Z,2.90
2023-02-11T02:24:31.955Z,3.10
2023-02-11T02:27:23.499Z,3.90
2023-02-11T02:29:59.389Z,2.55
2023-02-11T02:32:44.579Z,2.75
2023-02-11T02:35:15.470Z,2.45
2023-02-11T02:37:42.429Z,2.80
2023-02-11T02:40:31.549Z,2.90
2023-02-11T02:43:00.679Z,2.60
2023-02-11T02:45:27.547Z,2.50
2023-02-11T02:47:58.551Z,2.50
2023-02-11T02:50:31.810Z,2.88
2023-02-11T02:53:26.549Z,3.30
2023-02-11T02:55:59.456Z,2.15
2023-02-11T02:59:04.678Z,3.88
2023-02-11T03:01:57.298Z,2.80
2023-02-11T03:04:36.095Z,2.50
2023-02-11T03:07:20.759Z,2.75
2023-02-11T03:10:02.552Z,2.55
2023-02-11T03:12:32.274Z,3.00
2023-02-11T03:14:59.975Z,3.00
2023-02-11T03:17:28.560Z,3.08
2023-02-11T03:19:57.159Z,3.17
2023-02-11T03:22:33.418Z,3.25
2023-02-11T03:25:02.029Z,2.90
2023-02-11T03:28:13.959Z,3.35
2023-02-11T03:30:56.430Z,2.60
2023-02-11T03:33:46.127Z,2.88
2023-02-11T03:36:18.180Z,3.97
2023-02-11T03:38:49.368Z,2.92
2023-02-11T03:41:21.206Z,3.25
2023-02-11T03:43:56.097Z,2.78
2023-02-11T03:46:33.691Z,3.83
2023-02-11T03:49:09.386Z,4.15
2023-02-11T03:51:37.662Z,3.25
2023-02-11T03:54:09.630Z,3.15
2023-02-11T03:56:46.920Z,4.10
2023-02-11T03:59:13.720Z,2.70
2023-02-11T04:01:40.824Z,3.55
2023-02-11T04:04:07.637Z,2.90
2023-02-11T04:06:35.417Z,2.35
2023-02-11T04:09:02.281Z,2.78
2023-02-11T04:11:29.002Z,2.78
2023-02-11T04:13:55.768Z,2.53
2023-02-11T04:16:22.519Z,2.72
2023-02-11T04:18:49.740Z,2.75
2023-02-11T04:21:16.486Z,2.70
2023-02-11T04:23:43.387Z,2.10
2023-02-11T04:26:10.110Z,2.53
2023-02-11T04:28:36.971Z,2.05
2023-02-11T04:31:03.824Z,2.72
2023-02-11T04:33:30.596Z,2.53
2023-02-11T04:35:57.655Z,3.88
2023-02-11T04:38:24.371Z,1.65
2023-02-11T04:40:51.364Z,2.15
2023-02-11T04:43:18.127Z,2.90
2023-02-11T04:45:44.834Z,2.10
2023-02-11T04:48:12.617Z,2.15
2023-02-11T04:50:39.418Z,2.00
2023-02-11T04:53:06.513Z,1.90
2023-02-11T04:55:33.278Z,1.85
2023-02-11T04:57:59.988Z,2.60
2023-02-11T05:00:26.704Z,2.20
2023-02-11T05:02:53.468Z,2.33
2023-02-11T05:05:20.256Z,2.20
2023-02-11T05:07:47.062Z,2.10
2023-02-11T05:10:13.900Z,1.77
2023-02-11T05:12:40.644Z,2.17
2023-02-11T05:15:07.722Z,2.35
2023-02-11T05:17:34.399Z,2.33
2023-02-11T05:20:01.447Z,2.13
2023-02-11T05:22:28.183Z,2.17
2023-02-11T05:24:54.941Z,1.98
2023-02-11T05:27:21.739Z,2.50
2023-02-11T05:29:48.612Z,1.98
2023-02-11T05:32:15.349Z,2.10
2023-02-11T05:34:42.171Z,2.20
2023-02-11T05:37:09.059Z,1.90
2023-02-11T05:39:35.939Z,2.58
2023-02-11T05:42:03.593Z,2.03
2023-02-11T05:44:30.317Z,1.90
2023-02-11T05:46:57.027Z,2.05
2023-02-11T05:49:23.787Z,2.88
2023-02-11T05:51:50.575Z,2.15
2023-02-11T05:54:17.585Z,1.98
2023-02-11T05:56:44.974Z,2.40
2023-02-11T05:59:14.611Z,1.60
2023-02-11T06:01:41.544Z,1.98
2023-02-11T06:04:08.340Z,2.03
2023-02-11T06:06:35.121Z,1.95
2023-02-11T06:09:01.879Z,2.53
2023-02-11T06:11:28.624Z,1.95
2023-02-11T06:13:55.367Z,1.80
2023-02-11T06:16:22.433Z,1.80
2023-02-11T06:18:49.214Z,2.40
2023-02-11T06:21:15.960Z,1.58
2023-02-11T06:23:43.677Z,1.48
2023-02-11T06:26:18.263Z,1.48
2023-02-11T06:28:45.672Z,1.30
2023-02-11T06:31:13.160Z,1.50
2023-02-11T06:33:40.032Z,1.08
2023-02-11T06:36:19.145Z,1.35
2023-02-11T06:38:46.803Z,2.65
2023-02-11T06:41:15.705Z,1.20
2023-02-11T06:43:43.856Z,0.88
2023-02-11T06:46:10.831Z,0.93
2023-02-11T06:48:37.646Z,1.45
2023-02-11T06:51:06.174Z,1.98
2023-02-11T06:53:36.761Z,1.42
2023-02-11T06:56:05.430Z,0.90
2023-02-11T06:58:32.984Z,1.85
2023-02-11T07:01:04.001Z,0.98
2023-02-11T07:03:30.662Z,1.00
2023-02-11T07:05:57.374Z,0.93
2023-02-11T07:08:24.170Z,1.25
2023-02-11T07:10:50.858Z,1.23
2023-02-11T07:13:17.612Z,0.93
2023-02-11T07:15:44.544Z,0.93
2023-02-11T07:18:14.291Z,0.80
2023-02-11T07:20:42.540Z,1.70
2023-02-11T07:23:09.437Z,1.10
2023-02-11T07:25:36.673Z,0.88
2023-02-11T07:28:04.587Z,1.45
2023-02-11T07:30:31.480Z,1.90
2023-02-11T07:32:58.224Z,1.95
2023-02-11T07:35:24.926Z,0.98
2023-02-11T07:37:51.666Z,1.10
2023-02-11T07:40:18.531Z,1.30
2023-02-11T07:42:46.276Z,0.88
2023-02-11T07:45:14.129Z,0.80
2023-02-11T07:47:42.830Z,1.98
2023-02-11T07:50:10.832Z,0.73
2023-02-11T07:52:37.588Z,1.60
2023-02-11T07:55:05.005Z,1.70
2023-02-11T07:57:31.882Z,0.77
2023-02-11T07:59:58.675Z,1.33
2023-02-11T08:02:25.691Z,1.00
2023-02-11T08:04:52.465Z,0.90
2023-02-11T08:07:19.905Z,0.88
2023-02-11T08:09:46.742Z,0.73
2023-02-11T08:12:13.686Z,1.55
2023-02-11T08:14:40.453Z,1.15
2023-02-11T08:17:07.204Z,1.60
2023-02-11T08:19:35.225Z,0.90
2023-02-11T08:22:02.228Z,1.10
2023-02-11T08:24:28.986Z,0.95
2023-02-11T08:26:55.776Z,0.85
2023-02-11T08:29:22.562Z,0.80
2023-02-11T08:31:49.821Z,0.90
2023-02-11T08:34:19.239Z,1.52
2023-02-11T08:36:47.452Z,1.02
2023-02-11T08:39:20.829Z,1.77
2023-02-11T08:41:50.748Z,1.00
2023-02-11T08:44:19.389Z,1.00
2023-02-11T08:46:46.587Z,1.20
2023-02-11T08:49:14.266Z,1.20
2023-02-11T08:51:41.594Z,1.27
2023-02-11T08:54:10.063Z,1.30
2023-02-11T08:56:38.255Z,1.13
2023-02-11T08:59:05.520Z,0.90
2023-02-11T09:01:33.257Z,0.90
2023-02-11T09:04:01.224Z,1.08
2023-02-11T09:06:28.792Z,1.35
2023-02-11T09:08:57.398Z,1.70
2023-02-11T09:11:33.521Z,1.15
2023-02-11T09:14:00.703Z,1.15
2023-02-11T09:16:30.130Z,4.88
2023-02-11T09:18:58.497Z,0.85
2023-02-11T09:21:25.794Z,1.55
2023-02-11T09:23:52.789Z,1.23
2023-02-11T09:26:27.987Z,1.10
2023-02-11T09:28:56.430Z,1.02
2023-02-11T09:31:25.819Z,0.95
2023-02-11T09:33:57.152Z,1.08
2023-02-11T09:36:29.696Z,1.10
2023-02-11T09:38:58.564Z,1.05
2023-02-11T09:41:56.204Z,0.80
2023-02-11T09:44:34.226Z,0.93
2023-02-11T09:47:06.626Z,0.90
2023-02-11T09:49:41.250Z,1.17
2023-02-11T09:52:32.516Z,1.30
2023-02-11T09:55:02.294Z,1.40
2023-02-11T09:57:34.210Z,1.52
2023-02-11T10:00:02.497Z,0.88
2023-02-11T10:02:50.318Z,1.08
2023-02-11T10:05:28.521Z,1.27
2023-02-11T10:08:05.380Z,1.48
2023-02-11T10:10:52.786Z,2.20
2023-02-11T10:13:28.820Z,1.30
2023-02-11T10:16:20.716Z,1.58
2023-02-11T10:18:56.248Z,1.50
2023-02-11T10:21:33.244Z,1.52
2023-02-11T10:24:10.160Z,1.55
2023-02-11T10:26:37.503Z,1.40
2023-02-11T10:29:22.035Z,1.17
2023-02-11T10:31:50.928Z,1.42
2023-02-11T10:34:17.669Z,1.45
2023-02-11T10:36:45.965Z,1.58
2023-02-11T10:39:19.717Z,1.48
2023-02-11T10:41:50.502Z,1.65
2023-02-11T10:44:43.098Z,2.13
2023-02-11T10:47:22.107Z,1.65
2023-02-11T10:49:49.980Z,3.65
2023-02-11T10:52:22.862Z,1.38
2023-02-11T10:54:57.733Z,1.40
2023-02-11T10:57:28.368Z,2.38
2023-02-11T11:00:21.236Z,1.20
2023-02-11T11:02:58.522Z,1.58
2023-02-11T11:05:59.792Z,1.27
2023-02-11T11:08:49.742Z,2.22
2023-02-11T11:11:22.300Z,1.25
2023-02-11T11:14:03.860Z,2.30
2023-02-11T11:16:36.110Z,1.52
2023-02-11T11:19:08.984Z,1.70
2023-02-11T11:21:44.747Z,1.92
2023-02-11T11:24:22.650Z,1.50
2023-02-11T11:26:59.738Z,1.85
2023-02-11T11:29:38.174Z,1.63
2023-02-11T11:32:20.789Z,1.50
2023-02-11T11:34:55.703Z,1.90
2023-02-11T11:37:34.926Z,1.20
2023-02-11T11:40:22.085Z,2.38
2023-02-11T11:43:05.585Z,1.40
2023-02-11T11:45:33.962Z,1.40
2023-02-11T11:48:21.563Z,2.20
2023-02-11T11:50:53.949Z,1.20
2023-02-11T11:53:35.738Z,1.25
2023-02-11T11:56:11.514Z,1.35
2023-02-11T11:58:38.465Z,1.63
2023-02-11T12:01:29.287Z,2.42
2023-02-11T12:04:26.985Z,1.30
2023-02-11T12:07:06.537Z,2.22
2023-02-11T12:09:45.388Z,2.17
2023-02-11T12:12:35.461Z,1.38
2023-02-11T12:15:29.674Z,0.95
2023-02-11T12:18:02.715Z,1.25
2023-02-11T12:21:04.301Z,1.00
2023-02-11T12:24:03.432Z,0.93
2023-02-11T12:26:57.959Z,1.48
2023-02-11T12:29:42.749Z,1.48
2023-02-11T12:32:27.742Z,1.20
2023-02-11T12:35:09.637Z,1.35
2023-02-11T12:37:38.982Z,1.13
2023-02-11T12:40:24.184Z,0.80
2023-02-11T12:43:18.426Z,1.83
2023-02-11T12:46:02.027Z,1.00
2023-02-11T12:48:50.635Z,1.10
2023-02-11T12:51:43.962Z,0.90
2023-02-11T12:54:11.044Z,1.30
2023-02-11T12:56:45.713Z,1.30
2023-02-11T12:59:45.213Z,1.55
2023-02-11T13:02:22.089Z,2.22
2023-02-11T13:04:56.879Z,1.10
2023-02-11T13:07:42.259Z,1.45
2023-02-11T13:10:15.656Z,1.00
2023-02-11T13:13:05.368Z,1.52
2023-02-11T13:15:33.211Z,0.93
2023-02-11T13:18:12.253Z,1.02
2023-02-11T13:20:51.525Z,1.13
2023-02-11T13:23:26.552Z,0.80
2023-02-11T13:26:23.316Z,0.80
2023-02-11T13:29:18.160Z,0.95
2023-02-11T13:31:56.253Z,1.02
2023-02-11T13:34:44.325Z,1.00
2023-02-11T13:37:48.141Z,0.93
2023-02-11T13:40:26.729Z,0.90
2023-02-11T13:43:02.734Z,1.35
2023-02-11T13:45:47.560Z,1.17
2023-02-11T13:48:17.969Z,1.10
2023-02-11T13:50:57.197Z,1.50
2023-02-11T13:53:25.079Z,0.68
2023-02-11T13:56:04.044Z,0.77
2023-02-11T13:58:30.708Z,0.98
2023-02-11T14:00:58.592Z,1.10
2023-02-11T14:03:51.261Z,1.25
2023-02-11T14:09:11.553Z,1.52
2023-02-11T14:11:49.111Z,1.02
2023-02-11T14:14:23.922Z,1.83
2023-02-11T14:17:02.791Z,1.92
2023-02-11T14:19:39.835Z,1.48
2023-02-11T14:22:40.307Z,1.30
2023-02-11T14:25:20.487Z,1.17
2023-02-11T14:27:57.842Z,1.15
2023-02-11T14:30:27.778Z,0.95
2023-02-11T14:33:20.685Z,1.02
2023-02-11T14:36:10.570Z,1.63
2023-02-11T14:38:40.046Z,2.63
2023-02-11T14:41:26.303Z,2.50
2023-02-11T14:43:58.598Z,1.10
2023-02-11T14:46:27.858Z,3.72
2023-02-11T14:48:58.887Z,2.50
2023-02-11T14:51:35.002Z,1.27
2023-02-11T14:54:23.567Z,1.20
2023-02-11T14:57:20.248Z,1.35
2023-02-11T15:00:14.319Z,1.20
2023-02-11T15:02:43.440Z,1.83
2023-02-11T15:05:23.758Z,1.30
2023-02-11T15:07:57.829Z,1.30
2023-02-11T15:10:31.035Z,1.05
2023-02-11T15:13:01.509Z,1.98
2023-02-11T15:15:29.096Z,1.00
2023-02-11T15:17:59.969Z,1.35
2023-02-11T15:20:29.194Z,1.38
2023-02-11T15:23:01.592Z,1.65
2023-02-11T15:25:31.746Z,0.93
2023-02-11T15:27:59.800Z,1.80
2023-02-11T15:30:34.272Z,0.90
2023-02-11T15:33:06.106Z,1.10
2023-02-11T15:35:37.160Z,1.73
2023-02-11T15:38:05.086Z,1.15
2023-02-11T15:40:37.507Z,1.52
2023-02-11T15:43:09.855Z,1.20
2023-02-11T15:45:53.080Z,1.80
2023-02-11T15:48:24.332Z,1.75
2023-02-11T15:51:21.930Z,1.47
2023-02-11T15:54:00.718Z,1.80
2023-02-11T15:56:37.704Z,1.55
2023-02-11T15:59:17.201Z,1.60
2023-02-11T16:01:45.678Z,0.95
2023-02-11T16:04:22.347Z,1.90
2023-02-11T16:06:51.051Z,1.60
2023-02-11T16:09:23.824Z,1.33
2023-02-11T16:11:50.469Z,1.80
2023-02-11T16:14:29.613Z,2.88
2023-02-11T16:17:06.009Z,1.40
2023-02-11T16:19:34.898Z,1.48
2023-02-11T16:22:08.623Z,2.17
2023-02-11T16:24:37.652Z,1.60
2023-02-11T16:27:29.782Z,1.60
2023-02-11T16:29:58.460Z,1.65
2023-02-11T16:32:28.195Z,2.60
2023-02-11T16:34:58.077Z,2.05
2023-02-11T16:37:25.410Z,2.35
2023-02-11T16:39:56.856Z,1.65
2023-02-11T16:42:23.757Z,1.33
2023-02-11T16:44:50.484Z,2.00
2023-02-11T16:47:23.228Z,1.95
2023-02-11T16:49:50.407Z,1.80
2023-02-11T16:52:19.970Z,2.42
2023-02-11T16:54:46.752Z,3.10
2023-02-11T16:57:19.299Z,2.60
2023-02-11T16:59:46.499Z,3.22
2023-02-11T17:02:18.620Z,1.95
2023-02-11T17:04:45.925Z,2.85
2023-02-11T17:07:13.239Z,2.42
2023-02-11T17:09:40.281Z,2.40
2023-02-11T17:12:07.642Z,2.53
2023-02-11T17:14:34.356Z,2.60
2023-02-11T17:17:01.830Z,3.15
2023-02-11T17:19:28.807Z,2.65
2023-02-11T17:21:55.521Z,4.88
2023-02-11T17:24:22.698Z,4.57
2023-02-11T17:26:49.886Z,3.30
2023-02-11T17:29:20.738Z,2.47
2023-02-11T17:31:47.503Z,3.78
2023-02-11T17:34:14.926Z,2.95
2023-02-11T17:36:41.711Z,2.80
2023-02-11T17:39:08.829Z,2.35
2023-02-11T17:41:37.378Z,2.15
2023-02-11T17:44:04.410Z,2.50
2023-02-11T17:46:32.296Z,2.85
2023-02-11T17:49:00.423Z,2.33
2023-02-11T17:51:33.239Z,2.88
2023-02-11T17:54:03.134Z,2.83
2023-02-11T17:56:33.206Z,2.38
2023-02-11T17:59:00.084Z,3.47
2023-02-11T18:01:27.682Z,3.80
2023-02-11T18:03:54.598Z,3.22
2023-02-11T18:06:21.886Z,3.50
2023-02-11T18:08:49.265Z,2.30
2023-02-11T18:11:16.753Z,2.55
2023-02-11T18:13:45.309Z,2.53
2023-02-11T18:16:15.930Z,2.40
2023-02-11T18:18:43.637Z,2.38
2023-02-11T18:21:18.549Z,2.03
2023-02-11T18:23:45.658Z,2.28
2023-02-11T18:26:14.177Z,2.88
2023-02-11T18:28:45.294Z,2.45
2023-02-11T18:31:12.698Z,2.92
2023-02-11T18:33:40.636Z,2.45
2023-02-11T18:36:13.022Z,1.88
2023-02-11T18:38:40.752Z,1.23
2023-02-11T18:41:08.423Z,1.00
2023-02-11T18:43:35.269Z,1.38
2023-02-11T18:46:03.237Z,1.30
2023-02-11T18:48:30.008Z,1.20
2023-02-11T18:50:56.777Z,2.33
2023-02-11T18:53:24.776Z,2.30
2023-02-11T18:55:53.105Z,1.95
2023-02-11T18:58:21.494Z,3.85
2023-02-11T19:00:49.190Z,2.83
2023-02-11T19:03:16.012Z,3.22
2023-02-11T19:05:43.692Z,2.53
2023-02-11T19:08:10.891Z,2.50
2023-02-11T19:10:42.243Z,3.28
2023-02-11T19:13:09.328Z,2.87
2023-02-11T19:15:44.520Z,3.03
2023-02-11T19:18:12.978Z,2.55
2023-02-11T19:20:40.668Z,2.05
2023-02-11T19:23:07.970Z,2.17
2023-02-11T19:25:35.027Z,2.60
2023-02-11T19:28:02.784Z,2.70
2023-02-11T19:30:29.771Z,3.75
2023-02-11T19:32:57.887Z,2.83
2023-02-11T19:35:25.724Z,2.13
2023-02-11T19:37:52.642Z,2.45
2023-02-11T19:40:21.355Z,2.78
2023-02-11T19:42:48.291Z,2.13
2023-02-11T19:45:15.276Z,2.45
2023-02-11T19:47:42.158Z,2.60
2023-02-11T19:50:09.382Z,2.92
2023-02-11T19:52:40.475Z,3.45
2023-02-11T19:55:08.009Z,4.32
2023-02-11T19:57:36.201Z,4.72
2023-02-11T20:00:03.314Z,3.92
2023-02-11T20:02:31.283Z,3.97
2023-02-11T20:04:58.119Z,5.13
2023-02-11T20:07:24.871Z,4.28
2023-02-11T20:09:53.752Z,4.07
2023-02-11T20:12:20.483Z,4.18
2023-02-11T20:14:47.224Z,4.22
2023-02-11T20:17:16.277Z,4.93
2023-02-11T20:19:43.221Z,5.88
2023-02-11T20:22:09.909Z,23.15
2023-02-11T20:24:36.598Z,12.20
2023-02-11T20:27:03.301Z,8.43
2023-02-11T20:29:31.878Z,10.80
2023-02-11T20:31:58.792Z,5.28
2023-02-11T20:34:25.632Z,6.60
2023-02-11T20:36:52.853Z,5.75
2023-02-11T20:39:22.469Z,6.40
2023-02-11T20:41:50.118Z,5.93
2023-02-11T20:44:16.947Z,4.60
2023-02-11T20:46:49.335Z,5.70
2023-02-11T20:49:19.205Z,4.88
2023-02-11T20:51:47.893Z,4.90
2023-02-11T20:54:17.278Z,6.18
2023-02-11T20:56:46.785Z,7.60
2023-02-11T20:59:15.208Z,7.93
2023-02-11T21:01:48.512Z,7.47
2023-02-11T21:04:18.412Z,13.07
2023-02-11T21:06:47.825Z,10.68
2023-02-11T21:09:19.983Z,7.40
2023-02-11T21:14:13.808Z,6.50
2023-02-11T21:16:41.189Z,6.53
2023-02-11T21:19:07.993Z,6.15
2023-02-11T21:21:36.333Z,7.10
2023-02-11T21:24:03.878Z,6.93
2023-02-11T21:26:30.668Z,6.90
2023-02-11T21:28:57.566Z,6.32
2023-02-11T21:31:27.232Z,6.63
2023-02-11T21:33:57.418Z,6.43
2023-02-11T21:36:24.345Z,6.43
2023-02-11T21:38:51.221Z,7.28
2023-02-11T21:41:21.337Z,6.32
2023-02-11T21:43:49.009Z,6.93
2023-02-11T21:46:16.795Z,6.70
2023-02-11T21:48:43.776Z,7.05
2023-02-11T21:51:19.815Z,7.00
2023-02-11T21:53:47.089Z,6.65
2023-02-11T21:56:16.931Z,8.95
2023-02-11T21:58:45.228Z,7.68
2023-02-11T22:01:17.200Z,9.02
2023-02-11T22:03:45.220Z,10.02
2023-02-11T22:06:18.023Z,10.32
2023-02-11T22:08:45.057Z,11.05
2023-02-11T22:11:13.033Z,10.63
2023-02-11T22:13:43.320Z,9.25
2023-02-11T22:16:13.403Z,5.55
2023-02-11T22:18:40.798Z,3.70
2023-02-11T22:21:11.191Z,2.38
2023-02-11T22:23:39.613Z,2.75
2023-02-11T22:26:28.344Z,2.78
2023-02-11T22:28:55.995Z,2.33
2023-02-11T22:31:29.249Z,2.63
2023-02-11T22:33:56.662Z,3.13
2023-02-11T22:36:29.188Z,2.08
2023-02-11T22:38:57.139Z,1.85
2023-02-11T22:41:27.075Z,1.80
2023-02-11T22:43:54.251Z,3.55
2023-02-11T22:46:23.632Z,2.90
2023-02-11T22:48:50.875Z,4.40
2023-02-11T22:51:21.002Z,2.40
2023-02-11T22:54:03.404Z,2.50
2023-02-11T22:56:31.602Z,2.42
2023-02-11T22:59:01.630Z,8.13
2023-02-11T23:01:29.924Z,8.35
2023-02-11T23:03:56.812Z,7.50
2023-02-11T23:06:23.508Z,7.75
2023-02-11T23:08:50.239Z,4.07
2023-02-11T23:11:20.657Z,2.78
2023-02-11T23:13:49.942Z,2.92
2023-02-11T23:16:19.561Z,3.30
2023-02-11T23:18:48.552Z,3.45
2023-02-11T23:21:23.405Z,2.95
2023-02-11T23:24:02.227Z,3.80
2023-02-11T23:26:29.892Z,3.60
2023-02-11T23:28:59.489Z,3.70
2023-02-11T23:31:28.560Z,6.00
2023-02-11T23:33:55.688Z,3.08
2023-02-11T23:36:23.362Z,2.33
2023-02-11T23:38:50.076Z,2.40
2023-02-11T23:41:17.426Z,1.65
2023-02-11T23:43:44.378Z,2.00
2023-02-11T23:46:11.504Z,1.85
2023-02-11T23:48:40.488Z,1.85
2023-02-11T23:51:09.905Z,2.50
2023-02-11T23:53:37.839Z,1.80
2023-02-11T23:56:10.429Z,2.30
2023-02-11T23:58:37.454Z,2.55
